• Join FlightAware (Why Join?)
  • Login
  • US Flag 
09:49AM EDT


 

Airport Tracker/Info


-or-


 

Live Flight TrackerFlight Track Log ✈ USC142 ✈ 15-May-2013 ✈ KBUF - KBED

Flight Track Log - Related Links

Times and Time Zones

All times are in EDT time to prevent confusion due to time zone crossing. See the USC142 flight status page for this flight to view local times or setup timezone preferences in your user account.

Time Position Orientation Groundspeed Altitude Reporting Facility
EDT Latitude Longitude Course Direction KTS MPH feet Rate Location/Type
06:58PM 42.9167 -78.7500 216° Southwest 102 117 1,200  Level Buffalo TRACON
06:59PM 42.9000 -78.7667 216° Southwest 128 147 1,900 960 Climbing Buffalo TRACON
07:00PM 42.8667 -78.7500 160° South 144 166 2,900 900 Climbing Buffalo TRACON
07:01PM 42.8333 -78.7167 144° Southeast 158 182 3,900 900 Climbing Buffalo TRACON
07:02PM 42.8000 -78.6667 132° Southeast 157 181 4,700 840 Climbing Buffalo TRACON
07:03PM 42.7833 -78.6333 124° Southeast 156 180 5,600 840 Climbing Buffalo TRACON
07:04PM 42.7667 -78.5667 109° East 167 192 6,400 720 Climbing Buffalo TRACON
07:05PM 42.7667 -78.5000 90° East 179 206 7,100 660 Climbing Buffalo TRACON
07:06PM 42.7667 -78.4333 90° East 176 203 7,800 540 Climbing Buffalo TRACON
07:06PM 42.7769 -78.3911 72° East 179 206 8,100 420 Climbing Cleveland Center
07:07PM 42.7767 -78.3683 91° East 185 213 8,300 660 Climbing Cleveland Center
07:08PM 42.7858 -78.3031 79° East 190 219 8,900 360 Climbing Cleveland Center
07:09PM 42.7925 -78.2264 83° East 205 236 9,000  Climbing Cleveland Center
07:10PM 42.8011 -78.1411 82° East 226 260 8,900 -60 Descending Cleveland Center
07:11PM 42.8078 -78.0589 84° East 222 255 8,900  Level Cleveland Center
07:12PM 42.8183 -77.9733 80° East 228 262 8,900  Level Cleveland Center
07:13PM 42.8269 -77.8881 82° East 226 260 8,900  Level Cleveland Center
07:14PM 42.8331 -77.7972 85° East 227 261 8,900  Level Cleveland Center
07:15PM 42.8350 -77.7094 88° East 233 268 8,900  Level Cleveland Center
07:16PM 42.8328 -77.6217 92° East 230 265 8,900  Level Cleveland Center
07:17PM 42.8306 -77.5339 92° East 232 267 8,900  Level Cleveland Center
07:18PM 42.8325 -77.4489 88° East 228 262 8,900  Level Cleveland Center
07:19PM 42.8300 -77.3614 92° East 231 266 8,900  Level Cleveland Center
07:20PM 42.8272 -77.2594 92° East 233 268 8,900  Level Cleveland Center
07:21PM 42.8247 -77.1775 92° East 239 275 8,900 -60 Level Cleveland Center
07:22PM 42.8258 -77.1064 89° East 238 274 8,800 -120 Descending Boston Center
07:22PM 42.8264 -77.0383 89° East 232 267 8,800  Level Boston Center
07:23PM 42.8275 -76.9592 89° East 229 264 8,800  Level Boston Center
07:24PM 42.8225 -76.8767 95° East 231 266 8,900  Climbing Boston Center
07:25PM 42.8194 -76.7914 93° East 234 269 8,900  Level Boston Center
07:26PM 42.8164 -76.7064 93° East 230 265 8,900  Level Boston Center
07:27PM 42.8114 -76.6181 94° East 233 268 8,900  Level Boston Center
07:28PM 42.8186 -76.5308 84° East 232 267 8,900  Level Boston Center
07:29PM 42.8242 -76.4350 85° East 232 267 8,900  Level Boston Center
07:30PM 42.8294 -76.3447 85° East 230 265 8,900  Level Boston Center
07:31PM 42.8364 -76.2600 84° East 230 265 8,900  Level Boston Center
07:32PM 42.8436 -76.1728 84° East 234 269 8,900  Level Boston Center
07:33PM 42.8506 -76.0881 84° East 230 265 8,900  Level Boston Center
07:34PM 42.8575 -76.0008 84° East 232 267 8,900  Level Boston Center
07:35PM 42.8642 -75.9133 84° East 231 266 8,900  Level Boston Center
07:36PM 42.8714 -75.8200 84° East 233 268 8,900  Level Boston Center
07:37PM 42.8781 -75.7328 84° East 234 269 8,900  Level Boston Center
07:38PM 42.8847 -75.6453 84° East 231 266 8,900  Level Boston Center
07:39PM 42.8892 -75.5603 86° East 227 261 8,900  Level Boston Center
07:40PM 42.8975 -75.4786 82° East 230 265 8,900  Level Boston Center
07:41PM 42.9022 -75.3794 86° East 230 265 8,900  Level Boston Center
07:42PM 42.9089 -75.2833 85° East 234 269 8,900  Level Boston Center
07:43PM 42.9106 -75.2097 88° East 233 268 8,900  Level Boston Center
07:44PM 42.9131 -75.1050 88° East 237 273 8,900  Level Boston Center
07:45PM 42.9172 -75.0231 86° East 238 274 8,900  Level Boston Center
07:46PM 42.9158 -74.9944 94° East 239 275 8,900  Level Boston Center
07:46PM 42.9150 -74.9322 91° East 235 270 8,900  Level Boston Center
07:47PM 42.9064 -74.8439 98° East 237 273 8,900  Level Boston Center
07:48PM 42.8958 -74.7556 99° East 238 274 8,900  Level Boston Center
07:49PM 42.8872 -74.6647 97° East 241 277 8,900  Level Boston Center
07:50PM 42.8786 -74.5650 97° East 241 277 8,900  Level Boston Center
07:51PM 42.8678 -74.4742 99° East 242 278 8,900  Level Boston Center
07:53PM 42.8592 -74.3803 97° East 241 277 8,900  Level Boston Center
07:54PM 42.8481 -74.2922 100° East 239 275 8,900  Level Boston Center
07:55PM 42.8392 -74.1900 97° East 239 275 8,900  Level Boston Center
07:56PM 42.8297 -74.1189 100° East 240 276 8,900  Level Boston Center
07:57PM 42.8186 -74.0281 99° East 241 277 8,900  Level Boston Center
07:58PM 42.8033 -73.9314 102° East 245 282 8,900  Level Boston Center
07:59PM 42.7939 -73.8464 99° East 243 280 8,900  Level Boston Center
08:00PM 42.7783 -73.7525 103° East 248 285 8,900  Level Boston Center
08:01PM 42.7692 -73.6561 97° East 243 280 8,900  Level Boston Center
08:02PM 42.7575 -73.5569 99° East 244 281 8,900  Level Boston Center
08:03PM 42.7481 -73.4719 99° East 245 282 8,900  Level Boston Center
08:03PM 42.7442 -73.4294 97° East 248 285 8,900  Level Boston Center
08:04PM 42.7344 -73.3503 99° East 248 285 8,900  Level Boston Center
08:05PM 42.7225 -73.2539 100° East 241 277 8,900  Level Boston Center
08:06PM 42.7147 -73.1747 98° East 236 272 8,900  Level Boston Center
08:07PM 42.7008 -73.0758 101° East 236 272 8,900  Level Boston Center
08:08PM 42.6931 -72.9797 96° East 236 272 8,900  Level Boston Center
08:09PM 42.6808 -72.8919 101° East 236 272 8,900  Level Boston Center
08:10PM 42.6708 -72.7931 98° East 236 272 8,900  Level Boston Center
08:11PM 42.6586 -72.7028 100° East 236 272 8,900  Level Boston Center
08:12PM 42.6461 -72.6150 101° East 236 272 9,000  Climbing Boston Center
08:13PM 42.6358 -72.5275 99° East 236 272 9,000  Level Boston Center
08:14PM 42.6214 -72.4400 103° East 236 272 9,000  Level Boston Center
08:15PM 42.6089 -72.3497 101° East 236 272 9,000  Level Boston Center
08:16PM 42.5919 -72.2594 104° East 241 277 9,000 -420 Level Boston Center
08:17PM 42.5772 -72.1722 103° East 241 277 8,200 -840 Descending Boston Center
08:18PM 42.5622 -72.0681 101° East 256 295 7,400 -660 Descending Boston Center
08:19PM 42.5558 -71.9836 96° East 256 295 6,900 -600 Descending Boston Center
08:20PM 42.5469 -71.8792 97° East 251 289 6,300 -480 Descending Boston Center
08:21PM 42.5383 -71.8006 98° East 246 283 6,000 -180 Descending Boston Center
08:22PM 42.5253 -71.7106 101° East 224 258 6,000 -120 Level Boston Center
08:23PM 42.5183 -71.6400 98° East 219 252 5,800 -660 Descending Boston Center
08:24PM 42.5283 -71.5497 81° East 214 246 4,700 -1,020 Descending Boston Center
08:25PM 42.5333 -71.4667 85° East 224 258 3,800 -1,020 Descending KA90
08:26PM 42.5500 -71.3833 75° East 233 268 2,800 -900 Descending KA90
08:27PM 42.5833 -71.3000 61° Northeast 208 239 1,900 -420 Descending KA90
08:28PM 42.6278 -71.2747 23° Northeast 194 223 2,000  Climbing Boston Center
08:29PM 42.6272 -71.2239 91° East 147 169 2,000 -240 Level Boston Center
08:30PM 42.5981 -71.2075 158° South 88 101 1,600 -300 Descending Boston Center
08:31PM 42.5689 -71.2222 200° South 99 114 1,400 -180 Descending Boston Center
08:32PM 42.5400 -71.2397 204° Southwest 110 127 1,300 -240 Descending Boston Center
08:33PM 42.5167 -71.2500 198° South 125 144 1,000 -420 Descending KA90
08:34PM 42.4833 -71.2667 200° South 95 109 500 -540 Descending KA90
08:37PM 42.4667 -71.2833 184° South  Level FlightAware Approximate